Time;durP1;ratioP1;P1;durP2;ratioP2;P2;SDS_P1;SDS_P2;PMS_P1;PMS_P2;Temp;Humidity;BMP_temperature;BMP_pressure;BME280_temperature;BME280_humidity;BME280_pressure;Samples;Min_cycle;Max_cycle;Signal;HPM_P1;HPM_P2
2022/04/11 00:01:20;;;;;;;;;;;19.80;41.20;;;;;;5077605;28;19932;-60
2022/04/11 00:03:46;;;;;;;;;;;19.80;41.50;;;;;;5058354;28;20134;-59
2022/04/11 00:06:11;;;;;;;;;;;19.80;41.30;;;;;;5063049;28;19934;-60
2022/04/11 00:08:38;;;;;;;;;;;19.80;41.30;;;;;;5045578;28;20366;-60
2022/04/11 00:11:04;;;;;;;;;;;19.80;41.30;;;;;;5077508;28;19963;-60
2022/04/11 00:13:29;;;;;;;;;;;19.80;41.50;;;;;;5078806;28;19970;-60
2022/04/11 00:15:54;;;;;;;;;;;19.70;41.40;;;;;;5078430;28;19959;-60
2022/04/11 00:18:20;;;;;;;;;;;19.70;41.40;;;;;;5079709;28;19927;-59
2022/04/11 00:20:47;;;;;;;;;;;19.60;41.40;;;;;;5075882;28;19924;-60
2022/04/11 00:23:13;;;;;;;;;;;19.60;41.20;;;;;;5080015;28;19962;-60
2022/04/11 00:25:38;;;;;;;;;;;19.60;41.40;;;;;;5058057;28;20621;-60
2022/04/11 00:28:05;;;;;;;;;;;19.60;41.40;;;;;;5078094;28;21342;-60
2022/04/11 00:30:31;;;;;;;;;;;19.60;41.40;;;;;;5060798;28;19930;-60
2022/04/11 00:32:56;;;;;;;;;;;19.60;41.40;;;;;;5078158;28;19924;-60
2022/04/11 00:35:22;;;;;;;;;;;19.50;41.50;;;;;;5079610;28;20411;-60
2022/04/11 00:37:47;;;;;;;;;;;19.50;41.40;;;;;;5043640;28;20036;-60
2022/04/11 00:40:13;;;;;;;;;;;19.50;41.30;;;;;;5075610;28;19912;-61
2022/04/11 00:42:38;;;;;;;;;;;19.50;41.50;;;;;;5060661;28;20014;-60
2022/04/11 00:45:04;;;;;;;;;;;19.50;41.50;;;;;;5060767;28;20584;-60
2022/04/11 00:47:30;;;;;;;;;;;19.40;41.50;;;;;;5060206;28;19916;-60
2022/04/11 00:49:56;;;;;;;;;;;19.40;41.50;;;;;;5062463;28;20252;-60
2022/04/11 00:52:21;;;;;;;;;;;19.40;41.40;;;;;;5076492;28;20746;-60
2022/04/11 00:54:47;;;;;;;;;;;19.40;41.40;;;;;;5078309;28;19924;-60
2022/04/11 00:57:13;;;;;;;;;;;19.40;41.50;;;;;;5076663;28;19912;-60
2022/04/11 00:59:38;;;;;;;;;;;19.40;41.50;;;;;;5059868;28;20461;-60
2022/04/11 01:02:04;;;;;;;;;;;19.40;41.60;;;;;;5042335;28;19938;-60
2022/04/11 01:04:30;;;;;;;;;;;19.40;41.70;;;;;;5076704;28;19931;-60
2022/04/11 01:06:56;;;;;;;;;;;19.30;41.60;;;;;;5077645;28;20027;-60
2022/04/11 01:09:24;;;;;;;;;;;19.30;41.60;;;;;;5073576;28;19920;-60
2022/04/11 01:11:50;;;;;;;;;;;19.30;41.60;;;;;;5077202;28;19916;-60
2022/04/11 01:14:15;;;;;;;;;;;19.20;41.50;;;;;;5058445;28;19916;-60
2022/04/11 01:16:46;;;;;;;;;;;19.30;41.70;;;;;;5061526;28;19916;-60
2022/04/11 01:19:11;;;;;;;;;;;19.30;41.80;;;;;;5057740;28;20391;-60
2022/04/11 01:21:37;;;;;;;;;;;19.40;41.90;;;;;;5078093;28;19919;-60
2022/04/11 01:24:02;;;;;;;;;;;19.50;41.70;;;;;;5076223;28;19921;-60
2022/04/11 01:26:28;;;;;;;;;;;19.60;41.60;;;;;;5074811;28;19927;-60
2022/04/11 01:28:53;;;;;;;;;;;19.80;41.50;;;;;;5060236;28;19920;-60
2022/04/11 01:31:19;;;;;;;;;;;20.00;41.10;;;;;;5058021;28;19916;-60
2022/04/11 01:33:44;;;;;;;;;;;20.30;40.70;;;;;;5054294;28;20161;-60
2022/04/11 01:36:10;;;;;;;;;;;20.50;40.00;;;;;;5073573;28;19969;-60
2022/04/11 01:38:35;;;;;;;;;;;20.80;39.70;;;;;;5059197;28;19927;-60
2022/04/11 01:41:00;;;;;;;;;;;21.10;39.10;;;;;;5076778;28;19927;-60
2022/04/11 01:43:26;;;;;;;;;;;21.40;38.60;;;;;;5076402;28;19919;-60
2022/04/11 01:45:51;;;;;;;;;;;21.70;38.30;;;;;;5078923;28;20429;-60
2022/04/11 01:48:17;;;;;;;;;;;21.90;37.80;;;;;;5075066;28;19920;-62
2022/04/11 01:50:42;;;;;;;;;;;22.10;37.60;;;;;;5076566;28;20393;-60
2022/04/11 01:53:12;;;;;;;;;;;22.20;37.20;;;;;;5076371;28;20041;-60
2022/04/11 01:55:37;;;;;;;;;;;22.40;37.10;;;;;;5042276;28;20457;-60
2022/04/11 01:58:03;;;;;;;;;;;22.50;37.00;;;;;;5060407;28;20003;-60
2022/04/11 02:00:28;;;;;;;;;;;22.50;36.70;;;;;;5042879;28;19981;-60
2022/04/11 02:02:54;;;;;;;;;;;22.50;36.70;;;;;;5060290;28;20026;-60
2022/04/11 02:05:19;;;;;;;;;;;22.50;36.70;;;;;;5075952;28;19971;-60
2022/04/11 02:07:45;;;;;;;;;;;22.50;36.80;;;;;;5077574;28;19973;-60
2022/04/11 02:10:10;;;;;;;;;;;22.40;36.80;;;;;;5074280;28;19920;-60
2022/04/11 02:12:36;;;;;;;;;;;22.40;36.80;;;;;;5056723;28;23022;-60
2022/04/11 02:15:01;;;;;;;;;;;22.30;36.80;;;;;;5060159;28;19916;-60
2022/04/11 02:17:27;;;;;;;;;;;22.30;36.80;;;;;;5072314;28;20276;-60
2022/04/11 02:19:52;;;;;;;;;;;22.30;37.00;;;;;;5073776;28;20426;-60
2022/04/11 02:22:17;;;;;;;;;;;22.20;37.10;;;;;;5076265;28;19947;-60
2022/04/11 02:24:43;;;;;;;;;;;22.10;37.10;;;;;;5075985;28;19928;-60
2022/04/11 02:27:08;;;;;;;;;;;22.00;37.30;;;;;;5077298;28;19953;-60
2022/04/11 02:29:34;;;;;;;;;;;21.90;37.40;;;;;;5041734;28;19920;-60
2022/04/11 02:31:59;;;;;;;;;;;21.90;37.40;;;;;;5059598;28;20287;-60
2022/04/11 02:34:25;;;;;;;;;;;21.80;37.50;;;;;;5056491;28;19921;-60
2022/04/11 02:36:51;;;;;;;;;;;21.80;37.60;;;;;;5077178;28;20007;-60
2022/04/11 02:39:16;;;;;;;;;;;21.80;37.80;;;;;;5073824;28;20011;-60
2022/04/11 02:41:42;;;;;;;;;;;21.80;37.80;;;;;;5058326;28;19942;-60
2022/04/11 02:44:07;;;;;;;;;;;21.80;37.90;;;;;;5076385;28;19922;-60
2022/04/11 02:46:33;;;;;;;;;;;21.80;37.80;;;;;;5075540;28;20449;-60
2022/04/11 02:48:58;;;;;;;;;;;22.00;37.70;;;;;;5076448;28;19908;-60
2022/04/11 02:51:24;;;;;;;;;;;22.00;37.60;;;;;;5075442;28;19926;-60
2022/04/11 02:53:49;;;;;;;;;;;22.10;37.40;;;;;;5075737;28;20355;-60
2022/04/11 02:56:15;;;;;;;;;;;22.20;37.40;;;;;;5075136;28;19923;-60
2022/04/11 02:58:40;;;;;;;;;;;22.30;37.30;;;;;;5058534;28;20548;-60
2022/04/11 03:01:05;;;;;;;;;;;22.30;37.20;;;;;;5077655;28;20330;-60
2022/04/11 03:03:31;;;;;;;;;;;22.30;37.10;;;;;;5075028;28;20766;-60
2022/04/11 03:05:56;;;;;;;;;;;22.30;37.00;;;;;;5059505;28;19961;-60
2022/04/11 03:08:22;;;;;;;;;;;22.30;37.00;;;;;;5073214;28;19943;-60
2022/04/11 03:10:47;;;;;;;;;;;22.30;37.00;;;;;;5076720;28;19923;-60
2022/04/11 03:13:13;;;;;;;;;;;22.20;37.00;;;;;;5073594;28;19966;-61
2022/04/11 03:15:38;;;;;;;;;;;22.20;37.00;;;;;;5057315;28;22613;-60
2022/04/11 03:18:03;;;;;;;;;;;22.10;37.00;;;;;;5074127;28;20696;-60
2022/04/11 03:20:29;;;;;;;;;;;22.10;37.20;;;;;;5054492;28;20129;-60
2022/04/11 03:22:55;;;;;;;;;;;22.10;37.30;;;;;;5073396;28;19928;-60
2022/04/11 03:25:20;;;;;;;;;;;22.10;37.30;;;;;;5036548;28;19938;-60
2022/04/11 03:27:45;;;;;;;;;;;22.10;37.30;;;;;;5074142;28;19927;-60
2022/04/11 03:30:11;;;;;;;;;;;22.10;37.20;;;;;;5037951;28;19920;-60
2022/04/11 03:32:36;;;;;;;;;;;22.10;37.10;;;;;;5074805;28;19927;-60
2022/04/11 03:35:02;;;;;;;;;;;22.20;37.20;;;;;;5051626;28;19927;-60
2022/04/11 03:37:27;;;;;;;;;;;22.10;37.10;;;;;;5067580;28;20295;-60
2022/04/11 03:39:53;;;;;;;;;;;22.10;37.30;;;;;;5073948;28;20013;-60
2022/04/11 03:42:18;;;;;;;;;;;22.00;37.30;;;;;;5075442;28;19920;-60
2022/04/11 03:44:44;;;;;;;;;;;22.00;37.40;;;;;;5070886;28;20002;-60
2022/04/11 03:47:09;;;;;;;;;;;22.00;37.40;;;;;;5075166;28;20049;-60
2022/04/11 03:49:35;;;;;;;;;;;22.00;37.40;;;;;;5071261;28;19916;-60
2022/04/11 03:52:00;;;;;;;;;;;22.00;38.00;;;;;;5057104;28;20299;-60
2022/04/11 03:54:26;;;;;;;;;;;22.00;37.40;;;;;;5069128;28;20027;-60
2022/04/11 03:56:51;;;;;;;;;;;22.00;37.40;;;;;;5074140;28;19917;-60
2022/04/11 03:59:16;;;;;;;;;;;22.00;37.40;;;;;;5074198;28;20376;-60
2022/04/11 04:01:42;;;;;;;;;;;22.00;37.40;;;;;;5074992;28;20443;-60
2022/04/11 04:04:07;;;;;;;;;;;22.10;37.30;;;;;;5077873;28;19920;-60
2022/04/11 04:06:33;;;;;;;;;;;22.10;37.30;;;;;;5057585;28;19928;-60
2022/04/11 04:08:58;;;;;;;;;;;22.20;37.30;;;;;;5058977;28;19923;-60
2022/04/11 04:11:24;;;;;;;;;;;22.20;37.20;;;;;;5074393;28;19999;-60
2022/04/11 04:13:49;;;;;;;;;;;22.30;37.10;;;;;;5059462;28;19967;-60
2022/04/11 04:16:15;;;;;;;;;;;22.30;37.00;;;;;;5077385;28;19970;-60
2022/04/11 04:18:40;;;;;;;;;;;22.30;36.90;;;;;;5074195;28;19927;-60
2022/04/11 04:21:05;;;;;;;;;;;22.40;37.00;;;;;;5080617;28;19957;-60
2022/04/11 04:23:31;;;;;;;;;;;22.30;36.80;;;;;;5074579;28;20041;-61
2022/04/11 04:25:57;;;;;;;;;;;22.30;36.90;;;;;;5057751;28;19968;-60
2022/04/11 04:28:22;;;;;;;;;;;22.30;36.90;;;;;;5075196;28;19912;-60
2022/04/11 04:30:48;;;;;;;;;;;22.30;36.90;;;;;;5077055;28;19935;-60
2022/04/11 04:33:13;;;;;;;;;;;22.30;37.00;;;;;;5060050;28;19966;-60
2022/04/11 04:35:39;;;;;;;;;;;22.20;37.00;;;;;;5075267;28;19968;-60
2022/04/11 04:38:04;;;;;;;;;;;22.20;37.10;;;;;;5061687;28;19947;-60
2022/04/11 04:40:30;;;;;;;;;;;22.10;37.00;;;;;;5073733;28;19924;-60
2022/04/11 04:42:55;;;;;;;;;;;22.10;37.10;;;;;;5060321;28;20364;-62
2022/04/11 04:45:21;;;;;;;;;;;22.10;37.10;;;;;;5058114;28;19916;-60
2022/04/11 04:47:46;;;;;;;;;;;22.10;37.20;;;;;;5076546;28;20269;-60
2022/04/11 04:50:12;;;;;;;;;;;22.10;37.30;;;;;;5079325;28;19959;-60
2022/04/11 04:52:38;;;;;;;;;;;22.10;37.20;;;;;;5057799;28;20311;-60
2022/04/11 04:55:04;;;;;;;;;;;22.10;37.30;;;;;;5078482;28;19978;-60
2022/04/11 04:57:29;;;;;;;;;;;22.20;37.20;;;;;;5058648;28;19916;-60
2022/04/11 04:59:55;;;;;;;;;;;22.20;37.00;;;;;;5077802;28;20360;-60
2022/04/11 05:02:20;;;;;;;;;;;22.30;37.50;;;;;;5075776;28;20272;-60
2022/04/11 05:04:46;;;;;;;;;;;22.40;36.80;;;;;;5078473;28;19927;-60
2022/04/11 05:07:11;;;;;;;;;;;22.50;36.80;;;;;;5078207;28;19920;-60
2022/04/11 05:09:37;;;;;;;;;;;22.50;36.60;;;;;;5077568;28;20528;-60
2022/04/11 05:12:02;;;;;;;;;;;22.50;36.50;;;;;;5077525;28;20027;-60
2022/04/11 05:14:28;;;;;;;;;;;22.50;36.60;;;;;;5057107;28;19920;-60
2022/04/11 05:16:53;;;;;;;;;;;22.40;36.60;;;;;;5076254;28;19995;-60
2022/04/11 05:19:19;;;;;;;;;;;22.40;36.80;;;;;;5058798;28;19920;-60
2022/04/11 05:21:44;;;;;;;;;;;22.30;36.70;;;;;;5075813;28;19946;-60
2022/04/11 05:24:09;;;;;;;;;;;22.30;36.90;;;;;;5077479;28;19924;-60
2022/04/11 05:26:35;;;;;;;;;;;22.20;36.90;;;;;;5076986;28;20736;-60
2022/04/11 05:29:00;;;;;;;;;;;22.20;37.00;;;;;;5060552;28;20337;-60
2022/04/11 05:31:26;;;;;;;;;;;22.20;37.10;;;;;;5075908;28;20007;-60
2022/04/11 05:33:51;;;;;;;;;;;22.10;37.10;;;;;;5060502;28;19916;-60
2022/04/11 05:36:17;;;;;;;;;;;22.10;37.10;;;;;;5056365;28;19916;-60
2022/04/11 05:38:42;;;;;;;;;;;22.00;37.10;;;;;;5040970;28;20665;-60
2022/04/11 05:41:08;;;;;;;;;;;22.00;37.20;;;;;;5075983;28;19920;-60
2022/04/11 05:43:33;;;;;;;;;;;22.00;37.40;;;;;;5074430;28;19999;-60
2022/04/11 05:46:02;;;;;;;;;;;22.00;37.40;;;;;;5041066;28;19981;-60
2022/04/11 05:48:28;;;;;;;;;;;22.00;37.60;;;;;;5055744;28;20011;-60
2022/04/11 05:50:53;;;;;;;;;;;22.10;37.50;;;;;;5076409;28;20391;-60
2022/04/11 05:53:19;;;;;;;;;;;22.20;37.50;;;;;;5072818;28;20062;-60
2022/04/11 05:55:44;;;;;;;;;;;22.30;37.40;;;;;;5058362;28;20311;-60
2022/04/11 05:58:10;;;;;;;;;;;22.30;37.30;;;;;;5075143;28;20327;-60
2022/04/11 06:00:35;;;;;;;;;;;22.40;37.30;;;;;;5074525;28;20022;-60
2022/04/11 06:03:01;;;;;;;;;;;22.50;37.20;;;;;;5074479;28;19923;-60
2022/04/11 06:05:26;;;;;;;;;;;22.50;36.90;;;;;;5054132;28;20032;-62
2022/04/11 06:07:52;;;;;;;;;;;22.50;36.80;;;;;;5057397;28;19920;-60
2022/04/11 06:10:17;;;;;;;;;;;22.50;36.70;;;;;;5073025;28;19913;-60
2022/04/11 06:12:42;;;;;;;;;;;22.40;36.60;;;;;;5073588;28;19921;-60
2022/04/11 06:15:08;;;;;;;;;;;22.40;36.70;;;;;;5073333;28;19923;-60
2022/04/11 06:17:34;;;;;;;;;;;22.40;36.80;;;;;;5058660;28;19916;-60
2022/04/11 06:20:00;;;;;;;;;;;22.30;36.70;;;;;;5076092;28;19927;-60
2022/04/11 06:22:25;;;;;;;;;;;22.30;36.90;;;;;;5057447;28;19928;-60
2022/04/11 06:24:51;;;;;;;;;;;22.20;36.80;;;;;;5057947;28;19920;-60
2022/04/11 06:27:17;;;;;;;;;;;22.20;36.90;;;;;;5040016;28;19960;-60
2022/04/11 06:29:43;;;;;;;;;;;22.10;36.80;;;;;;5058434;28;19971;-60
2022/04/11 06:32:08;;;;;;;;;;;22.10;37.00;;;;;;5073829;28;19931;-60
2022/04/11 06:34:34;;;;;;;;;;;22.00;36.90;;;;;;5074838;28;20513;-61
2022/04/11 06:37:00;;;;;;;;;;;22.00;37.00;;;;;;5054664;28;19920;-61
2022/04/11 06:39:25;;;;;;;;;;;22.00;37.80;;;;;;5057003;28;19921;-61
2022/04/11 06:41:51;;;;;;;;;;;21.90;37.60;;;;;;5073379;28;19939;-62
2022/04/11 06:44:16;;;;;;;;;;;22.00;37.70;;;;;;5061220;28;19927;-60
2022/04/11 06:46:42;;;;;;;;;;;22.10;37.60;;;;;;5073374;28;20368;-59
2022/04/11 06:49:07;;;;;;;;;;;22.30;37.40;;;;;;5058071;28;20369;-60
2022/04/11 06:51:32;;;;;;;;;;;22.60;37.30;;;;;;5075060;28;19916;-61
2022/04/11 06:53:58;;;;;;;;;;;22.70;36.90;;;;;;5069755;28;19969;-59
2022/04/11 06:56:23;;;;;;;;;;;22.90;36.70;;;;;;5080727;28;20007;-59
2022/04/11 06:58:49;;;;;;;;;;;23.00;36.50;;;;;;5076810;28;19913;-59
2022/04/11 07:01:14;;;;;;;;;;;23.10;36.30;;;;;;5052748;28;19917;-59
2022/04/11 07:03:40;;;;;;;;;;;23.20;36.10;;;;;;5077132;28;19924;-60
2022/04/11 07:06:05;;;;;;;;;;;23.20;36.10;;;;;;5064484;28;20241;-61
2022/04/11 07:08:31;;;;;;;;;;;23.30;36.20;;;;;;5060138;28;19913;-60
2022/04/11 07:10:59;;;;;;;;;;;23.30;36.20;;;;;;5086365;28;19927;-60
2022/04/11 07:13:25;;;;;;;;;;;23.30;36.20;;;;;;5057804;28;19920;-60
2022/04/11 07:15:50;;;;;;;;;;;23.20;36.10;;;;;;5063071;28;19915;-59
2022/04/11 07:18:16;;;;;;;;;;;23.20;36.40;;;;;;5080993;28;20278;-60
2022/04/11 07:20:41;;;;;;;;;;;23.10;36.70;;;;;;5087096;28;20443;-61
2022/04/11 07:23:06;;;;;;;;;;;23.00;36.80;;;;;;5054100;28;19924;-60
2022/04/11 07:25:32;;;;;;;;;;;22.90;36.90;;;;;;5048627;28;19909;-59
2022/04/11 07:27:57;;;;;;;;;;;22.80;36.90;;;;;;5030733;28;19912;-60
2022/04/11 07:30:23;;;;;;;;;;;22.70;37.00;;;;;;5050115;28;20300;-60
2022/04/11 07:32:48;;;;;;;;;;;22.70;37.10;;;;;;5089255;28;20007;-60
2022/04/11 07:35:14;;;;;;;;;;;22.70;37.20;;;;;;5072885;28;19912;-61
2022/04/11 07:37:39;;;;;;;;;;;22.60;37.30;;;;;;5073082;28;19941;-60
2022/04/11 07:40:05;;;;;;;;;;;22.60;37.40;;;;;;5086389;28;19912;-61
2022/04/11 07:42:30;;;;;;;;;;;22.50;37.60;;;;;;5053017;28;19921;-60
2022/04/11 07:44:56;;;;;;;;;;;22.50;37.70;;;;;;5058391;28;20344;-60
2022/04/11 07:47:21;;;;;;;;;;;22.40;37.80;;;;;;5068705;28;20292;-60
2022/04/11 07:49:47;;;;;;;;;;;22.40;38.00;;;;;;5077697;28;19916;-60
2022/04/11 07:52:12;;;;;;;;;;;22.40;38.00;;;;;;5058019;28;19912;-60
2022/04/11 07:54:38;;;;;;;;;;;22.40;38.00;;;;;;5072289;28;19931;-61
2022/04/11 07:57:03;;;;;;;;;;;22.50;37.90;;;;;;5079562;28;19978;-60
2022/04/11 07:59:29;;;;;;;;;;;22.50;37.90;;;;;;5062717;28;19924;-60
2022/04/11 08:01:54;;;;;;;;;;;22.50;37.80;;;;;;5079707;28;19963;-60
2022/04/11 08:04:20;;;;;;;;;;;22.60;37.90;;;;;;5069961;28;19919;-60
2022/04/11 08:06:45;;;;;;;;;;;22.60;37.90;;;;;;5061670;28;19920;-61
2022/04/11 08:09:11;;;;;;;;;;;22.60;37.80;;;;;;5055166;28;20262;-60
2022/04/11 08:11:36;;;;;;;;;;;22.60;37.60;;;;;;5076169;28;19909;-60
2022/04/11 08:14:02;;;;;;;;;;;22.50;37.70;;;;;;5065095;28;19924;-61
2022/04/11 08:16:27;;;;;;;;;;;22.50;37.80;;;;;;5083080;28;19909;-61
2022/04/11 08:18:53;;;;;;;;;;;22.40;37.80;;;;;;5092070;28;19964;-60
2022/04/11 08:21:18;;;;;;;;;;;22.40;37.90;;;;;;5059146;28;20022;-60
2022/04/11 08:23:43;;;;;;;;;;;22.40;38.00;;;;;;5082564;28;20418;-61
2022/04/11 08:26:09;;;;;;;;;;;22.30;38.00;;;;;;5069195;28;19920;-60
2022/04/11 08:28:34;;;;;;;;;;;22.40;38.10;;;;;;5068430;28;19920;-60
2022/04/11 08:31:00;;;;;;;;;;;22.40;38.10;;;;;;5077045;28;20006;-60
2022/04/11 08:33:25;;;;;;;;;;;22.40;38.20;;;;;;5057330;28;19948;-60
2022/04/11 08:35:51;;;;;;;;;;;22.40;38.30;;;;;;5074537;28;20372;-61
2022/04/11 08:38:17;;;;;;;;;;;22.40;38.20;;;;;;5054201;28;19921;-60
2022/04/11 08:40:42;;;;;;;;;;;22.40;38.10;;;;;;5078595;28;20008;-60
2022/04/11 08:43:08;;;;;;;;;;;22.40;38.00;;;;;;5076153;28;20781;-61
2022/04/11 08:45:33;;;;;;;;;;;22.40;38.20;;;;;;5065072;28;20378;-60
2022/04/11 08:47:59;;;;;;;;;;;22.40;38.20;;;;;;5066408;28;20432;-60
2022/04/11 08:50:25;;;;;;;;;;;22.50;38.20;;;;;;5059583;28;19950;-60
2022/04/11 08:52:51;;;;;;;;;;;22.50;38.00;;;;;;5069616;28;20276;-61
2022/04/11 08:55:16;;;;;;;;;;;22.50;38.00;;;;;;5076802;28;19919;-61
2022/04/11 08:57:41;;;;;;;;;;;22.50;37.90;;;;;;5072678;28;20414;-59
2022/04/11 09:00:09;;;;;;;;;;;22.50;37.90;;;;;;5074444;28;20392;-61
2022/04/11 09:02:35;;;;;;;;;;;22.50;38.00;;;;;;5054253;28;19981;-61
2022/04/11 09:05:01;;;;;;;;;;;22.50;38.80;;;;;;5055111;28;20370;-61
2022/04/11 09:07:26;;;;;;;;;;;22.50;38.10;;;;;;5057251;28;20330;-60
2022/04/11 09:09:52;;;;;;;;;;;22.50;38.20;;;;;;5057778;28;19928;-59
2022/04/11 09:12:18;;;;;;;;;;;22.50;38.20;;;;;;5071297;28;19934;-60
2022/04/11 09:14:44;;;;;;;;;;;22.40;38.20;;;;;;5053911;28;20300;-60
2022/04/11 09:17:09;;;;;;;;;;;22.40;38.20;;;;;;5042479;28;19955;-61
2022/04/11 09:19:35;;;;;;;;;;;22.40;38.20;;;;;;5056110;28;20422;-60
2022/04/11 09:22:00;;;;;;;;;;;22.40;38.20;;;;;;5068656;28;19928;-59
2022/04/11 09:24:26;;;;;;;;;;;22.50;38.10;;;;;;5053093;28;19921;-60
2022/04/11 09:26:54;;;;;;;;;;;22.50;38.20;;;;;;5061481;28;19913;-60
2022/04/11 09:29:20;;;;;;;;;;;22.50;38.00;;;;;;5068856;28;19916;-61
2022/04/11 09:31:45;;;;;;;;;;;22.50;38.00;;;;;;5065329;28;20323;-60
2022/04/11 09:34:15;;;;;;;;;;;22.60;38.10;;;;;;5072535;28;19916;-60
2022/04/11 09:37:00;;;;;;;;;;;22.60;38.10;;;;;;5077275;28;19962;-60
2022/04/11 09:39:36;;;;;;;;;;;22.60;38.10;;;;;;5065475;28;19916;-61
2022/04/11 09:42:04;;;;;;;;;;;22.60;38.10;;;;;;5052283;28;19916;-60
2022/04/11 09:44:30;;;;;;;;;;;22.60;38.20;;;;;;5069769;28;19989;-61
2022/04/11 09:46:57;;;;;;;;;;;22.60;38.10;;;;;;5046833;28;19920;-61
2022/04/11 09:49:23;;;;;;;;;;;22.60;38.10;;;;;;5057008;28;20283;-60
2022/04/11 09:52:01;;;;;;;;;;;22.60;38.20;;;;;;5059732;28;19920;-60
2022/04/11 09:54:26;;;;;;;;;;;22.60;38.20;;;;;;5077845;28;19960;-60
2022/04/11 09:56:52;;;;;;;;;;;22.60;38.10;;;;;;5060635;28;19957;-60
2022/04/11 09:59:18;;;;;;;;;;;22.60;38.20;;;;;;5053871;28;19912;-60
2022/04/11 10:01:44;;;;;;;;;;;22.60;38.20;;;;;;5063487;28;19938;-61
2022/04/11 10:04:09;;;;;;;;;;;22.50;38.70;;;;;;5058198;28;19917;-61
2022/04/11 10:06:35;;;;;;;;;;;22.60;38.00;;;;;;5058600;28;19999;-60
2022/04/11 10:09:00;;;;;;;;;;;22.60;37.90;;;;;;5065909;28;20005;-60
2022/04/11 10:11:26;;;;;;;;;;;22.50;37.70;;;;;;5047866;28;19919;-60
2022/04/11 10:13:51;;;;;;;;;;;22.50;37.60;;;;;;5091267;28;20247;-60
2022/04/11 10:16:17;;;;;;;;;;;22.50;37.40;;;;;;5052909;28;19940;-60
2022/04/11 10:18:42;;;;;;;;;;;22.50;37.40;;;;;;5085802;28;19931;-61
2022/04/11 10:21:09;;;;;;;;;;;22.60;37.40;;;;;;5070687;28;19957;-60
2022/04/11 10:23:40;;;;;;;;;;;22.60;37.40;;;;;;5078397;28;19921;-60
2022/04/11 10:26:13;;;;;;;;;;;22.60;37.30;;;;;;5065034;28;19912;-60
2022/04/11 10:28:46;;;;;;;;;;;22.50;37.10;;;;;;5088104;28;19930;-60
2022/04/11 10:31:12;;;;;;;;;;;22.60;37.00;;;;;;5069706;28;19942;-60
2022/04/11 10:33:45;;;;;;;;;;;22.60;36.90;;;;;;5060639;28;20007;-60
2022/04/11 10:36:29;;;;;;;;;;;22.60;36.70;;;;;;5072650;28;19999;-60
2022/04/11 10:39:13;;;;;;;;;;;22.60;36.50;;;;;;5083773;28;20007;-60
2022/04/11 10:41:56;;;;;;;;;;;22.60;36.50;;;;;;5073986;28;20341;-61
2022/04/11 10:44:31;;;;;;;;;;;22.60;36.40;;;;;;5091065;28;19908;-60
2022/04/11 10:47:18;;;;;;;;;;;22.60;36.40;;;;;;5072996;28;20258;-60
2022/04/11 10:49:53;;;;;;;;;;;22.70;36.40;;;;;;5079681;28;19912;-60
2022/04/11 10:52:33;;;;;;;;;;;22.70;36.20;;;;;;5077601;28;19935;-60
2022/04/11 10:55:11;;;;;;;;;;;22.70;36.10;;;;;;5083144;28;19923;-60
2022/04/11 10:57:38;;;;;;;;;;;22.70;36.10;;;;;;5058254;28;19909;-60
2022/04/11 11:00:09;;;;;;;;;;;22.70;36.10;;;;;;5080186;28;19912;-60
2022/04/11 11:02:54;;;;;;;;;;;22.70;36.10;;;;;;5090819;28;19919;-60
2022/04/11 11:05:27;;;;;;;;;;;22.70;36.10;;;;;;5068555;28;19917;-60
2022/04/11 11:08:23;;;;;;;;;;;22.70;36.00;;;;;;5060413;28;19908;-60
2022/04/11 11:10:49;;;;;;;;;;;22.70;35.80;;;;;;5054636;28;19965;-60
2022/04/11 11:13:27;;;;;;;;;;;22.80;35.80;;;;;;5094500;28;20268;-60
2022/04/11 11:16:08;;;;;;;;;;;22.80;35.80;;;;;;5076867;28;19913;-60
2022/04/11 11:18:45;;;;;;;;;;;22.80;35.80;;;;;;5086826;28;19958;-61
2022/04/11 11:21:11;;;;;;;;;;;22.80;35.80;;;;;;5083220;28;20008;-60
2022/04/11 11:23:36;;;;;;;;;;;22.80;35.80;;;;;;5034498;28;20024;-60
2022/04/11 11:26:11;;;;;;;;;;;22.90;35.90;;;;;;5052890;28;19916;-60
2022/04/11 11:28:40;;;;;;;;;;;22.90;35.60;;;;;;5049736;28;19908;-60
2022/04/11 11:31:05;;;;;;;;;;;22.90;35.40;;;;;;5038395;28;19913;-60
2022/04/11 11:33:31;;;;;;;;;;;22.90;35.30;;;;;;5030864;28;19999;-60
2022/04/11 11:35:56;;;;;;;;;;;22.90;35.20;;;;;;5046719;28;19908;-60
2022/04/11 11:38:22;;;;;;;;;;;22.90;35.10;;;;;;5055465;28;19920;-60
2022/04/11 11:40:53;;;;;;;;;;;22.90;35.00;;;;;;5043418;28;19913;-60
2022/04/11 11:43:18;;;;;;;;;;;22.90;34.90;;;;;;5055036;28;19916;-60
2022/04/11 11:45:44;;;;;;;;;;;22.90;35.00;;;;;;5046701;28;19912;-62
2022/04/11 11:48:22;;;;;;;;;;;22.90;35.00;;;;;;5054104;28;20287;-60
2022/04/11 11:50:47;;;;;;;;;;;23.00;35.00;;;;;;5068842;28;19955;-60
2022/04/11 11:53:13;;;;;;;;;;;23.00;35.10;;;;;;5055527;28;19981;-60
2022/04/11 11:56:11;;;;;;;;;;;23.00;35.00;;;;;;5034564;28;19992;-61
2022/04/11 11:58:38;;;;;;;;;;;23.00;35.00;;;;;;5016239;28;19961;-60
2022/04/11 12:01:04;;;;;;;;;;;23.00;35.00;;;;;;5027536;28;19968;-60
2022/04/11 12:06:13;;;;;;;;;;;23.00;35.00;;;;;;5052087;28;20435;-61
2022/04/11 12:08:39;;;;;;;;;;;23.10;35.10;;;;;;5048468;28;20003;-60
2022/04/11 12:11:04;;;;;;;;;;;23.10;35.20;;;;;;5047086;28;19916;-60
2022/04/11 12:13:31;;;;;;;;;;;23.10;35.00;;;;;;5048350;28;20018;-61
2022/04/11 12:16:09;;;;;;;;;;;23.10;34.80;;;;;;5033935;28;19928;-60
2022/04/11 12:18:47;;;;;;;;;;;23.10;34.80;;;;;;5046103;28;19913;-60
2022/04/11 12:21:13;;;;;;;;;;;23.10;34.80;;;;;;5021556;28;19978;-60
2022/04/11 12:23:46;;;;;;;;;;;23.10;34.50;;;;;;5069312;28;19967;-60
2022/04/11 12:26:11;;;;;;;;;;;23.20;34.70;;;;;;5081659;28;20405;-60
2022/04/11 12:28:37;;;;;;;;;;;23.20;35.40;;;;;;5067376;28;19908;-61
2022/04/11 12:44:38;;;;;;;;;;;23.20;34.20;;;;;;5107239;27;20491;-62
2022/04/11 12:47:04;;;;;;;;;;;23.10;35.40;;;;;;5106581;28;19919;-61
2022/04/11 12:49:49;;;;;;;;;;;23.10;35.30;;;;;;5103777;28;19923;-61
2022/04/11 12:52:15;;;;;;;;;;;23.20;35.10;;;;;;5104235;28;19912;-62
2022/04/11 12:54:44;;;;;;;;;;;23.20;35.00;;;;;;5097169;28;20389;-62
2022/04/11 12:57:10;;;;;;;;;;;23.20;35.00;;;;;;5107619;28;19965;-61
2022/04/11 12:59:36;;;;;;;;;;;23.20;34.60;;;;;;5106970;28;19965;-62
2022/04/11 13:02:02;;;;;;;;;;;23.30;34.60;;;;;;5107424;28;19908;-62
2022/04/11 13:04:28;;;;;;;;;;;23.20;34.40;;;;;;5104416;28;19908;-62
2022/04/11 13:06:53;;;;;;;;;;;23.20;34.40;;;;;;5126508;27;19908;-62
2022/04/11 13:09:19;;;;;;;;;;;23.20;34.30;;;;;;5100750;28;19943;-62
2022/04/11 13:11:45;;;;;;;;;;;23.20;34.30;;;;;;5106687;28;19919;-61
2022/04/11 13:14:10;;;;;;;;;;;23.20;34.10;;;;;;5107021;28;20031;-62
2022/04/11 13:19:20;;;;;;;;;;;23.20;34.30;;;;;;5106776;28;19962;-62
2022/04/11 13:21:46;;;;;;;;;;;23.20;34.20;;;;;;5102267;28;20066;-62
2022/04/11 13:24:12;;;;;;;;;;;23.20;34.20;;;;;;5101013;28;19909;-62
2022/04/11 13:26:37;;;;;;;;;;;23.30;34.30;;;;;;5097189;28;19935;-62
2022/04/11 13:29:02;;;;;;;;;;;23.30;34.50;;;;;;5102149;28;19992;-62
2022/04/11 13:31:28;;;;;;;;;;;23.30;34.40;;;;;;5103016;28;19968;-61
2022/04/11 13:33:53;;;;;;;;;;;23.30;34.40;;;;;;5105327;28;19992;-62
2022/04/11 13:36:19;;;;;;;;;;;23.30;34.10;;;;;;5098711;28;20720;-61
2022/04/11 13:38:44;;;;;;;;;;;23.30;34.10;;;;;;5091322;28;20380;-62
2022/04/11 13:41:10;;;;;;;;;;;23.30;34.10;;;;;;5092672;28;19919;-62
2022/04/11 13:43:36;;;;;;;;;;;23.30;34.00;;;;;;5098172;28;19924;-62
2022/04/11 13:46:01;;;;;;;;;;;23.30;34.10;;;;;;5081718;28;19913;-62
2022/04/11 13:48:28;;;;;;;;;;;23.40;34.10;;;;;;5092803;28;20007;-61
2022/04/11 13:50:53;;;;;;;;;;;23.40;33.90;;;;;;5091931;28;19952;-60
2022/04/11 13:53:19;;;;;;;;;;;23.40;33.90;;;;;;5084921;28;20450;-61
2022/04/11 13:55:45;;;;;;;;;;;23.40;33.80;;;;;;5086365;28;20264;-60
2022/04/11 13:58:11;;;;;;;;;;;23.40;33.90;;;;;;5088819;28;20438;-61
2022/04/11 14:00:41;;;;;;;;;;;23.40;33.90;;;;;;5092362;28;19949;-61
2022/04/11 14:03:09;;;;;;;;;;;23.40;33.90;;;;;;5092545;28;20003;-61
2022/04/11 14:05:35;;;;;;;;;;;23.40;33.50;;;;;;5078936;28;20400;-61
2022/04/11 14:08:00;;;;;;;;;;;23.40;33.50;;;;;;5091832;28;19909;-61
2022/04/11 14:10:26;;;;;;;;;;;23.40;33.60;;;;;;5092094;28;19912;-60
2022/04/11 14:12:51;;;;;;;;;;;23.40;33.50;;;;;;5077274;28;19943;-61
2022/04/11 14:15:17;;;;;;;;;;;23.40;33.60;;;;;;5075521;28;19916;-61
2022/04/11 14:17:43;;;;;;;;;;;23.40;33.50;;;;;;5085793;28;19916;-61
2022/04/11 14:20:08;;;;;;;;;;;23.40;33.50;;;;;;5078471;28;19924;-61
2022/04/11 14:22:34;;;;;;;;;;;23.40;33.60;;;;;;5089326;28;20003;-61
2022/04/11 14:24:59;;;;;;;;;;;23.40;33.50;;;;;;5091966;28;19981;-61
2022/04/11 14:27:25;;;;;;;;;;;23.40;33.50;;;;;;5086009;28;19987;-61
2022/04/11 14:29:50;;;;;;;;;;;23.40;33.60;;;;;;5072829;28;19924;-61
2022/04/11 14:32:16;;;;;;;;;;;23.40;33.60;;;;;;5074208;28;19965;-61